createdAt,value
2022-10-08T00:12:55.665Z,8.1
2022-10-08T00:27:26.784Z,8.2
2022-10-08T00:41:58.939Z,8.3
2022-10-08T00:56:30.220Z,7.7
2022-10-08T01:10:59.916Z,8.2
2022-10-08T01:25:32.165Z,7.7
2022-10-08T01:40:05.022Z,7.7
2022-10-08T01:54:37.258Z,7.5
2022-10-08T02:09:09.924Z,7.6
2022-10-08T02:23:42.277Z,7.5
2022-10-08T02:38:15.338Z,7.3
2022-10-08T02:52:47.300Z,7.2
2022-10-08T03:07:17.826Z,7.2
2022-10-08T03:21:51.345Z,7.4
2022-10-08T03:36:21.883Z,6.8
2022-10-08T03:50:55.490Z,7
2022-10-08T04:05:27.312Z,7.3
2022-10-08T04:34:36.866Z,8
2022-10-08T04:49:10.597Z,8.3
2022-10-08T05:03:40.097Z,8.6
2022-10-08T05:18:12.823Z,8.9
2022-10-08T05:32:46.858Z,9.2
2022-10-08T05:47:17.479Z,9.4
2022-10-08T06:01:50.339Z,9.2
2022-10-08T06:16:21.753Z,9.3
2022-10-08T06:30:54.387Z,9.6
2022-10-08T06:45:26.865Z,9.7
2022-10-08T06:59:59.823Z,10
2022-10-08T07:14:33.429Z,10.2
2022-10-08T07:29:06.951Z,10.5
2022-10-08T07:43:40.510Z,10.7
2022-10-08T07:58:13.901Z,10.6
2022-10-08T08:12:47.034Z,10.6
2022-10-08T08:27:15.008Z,11.1
2022-10-08T08:41:48.055Z,11.4
2022-10-08T08:56:22.359Z,11.8
2022-10-08T09:10:55.671Z,12.3
2022-10-08T09:25:29.875Z,12.8
2022-10-08T09:40:07.926Z,13.5
2022-10-08T09:54:39.464Z,13.6
2022-10-08T10:09:10.948Z,13.5
2022-10-08T10:23:43.724Z,12.8
2022-10-08T10:38:17.878Z,12.5
2022-10-08T10:52:53.350Z,12.2
2022-10-08T11:07:24.791Z,11.1
2022-10-08T11:21:58.374Z,10.9
2022-10-08T11:36:33.616Z,10.6
2022-10-08T11:51:05.692Z,11.1
2022-10-08T12:05:41.268Z,10.8
2022-10-08T12:20:15.556Z,9.8
2022-10-08T12:34:48.128Z,9
2022-10-08T12:49:20.835Z,8.9
2022-10-08T13:03:53.191Z,8.8
2022-10-08T13:18:34.356Z,8.7
2022-10-08T13:33:03.729Z,8.4
2022-10-08T13:47:38.689Z,8.2
2022-10-08T14:02:12.801Z,7.2
2022-10-08T14:16:45.211Z,7.4
2022-10-08T14:31:15.735Z,6.8
2022-10-08T14:45:46.873Z,7.4
2022-10-08T15:00:19.514Z,7.4
2022-10-08T15:14:49.827Z,6.5
2022-10-08T15:29:23.106Z,7.1
2022-10-08T15:43:54.664Z,7.1
2022-10-08T15:58:52.275Z,7
2022-10-08T16:13:11.579Z,6.9
2022-10-08T16:27:43.927Z,6.8
2022-10-08T16:42:16.075Z,6.9
2022-10-08T16:56:46.154Z,7.3
2022-10-08T17:11:18.052Z,7.5
2022-10-08T17:25:50.728Z,7.4
2022-10-08T17:40:22.009Z,7.7
2022-10-08T17:54:53.754Z,7.8
2022-10-08T18:09:23.201Z,7.8
2022-10-08T18:23:54.590Z,7.8
2022-10-08T18:38:27.872Z,8.1
2022-10-08T18:53:00.711Z,7.7
2022-10-08T19:07:32.446Z,8.3
2022-10-08T19:22:04.844Z,8.3
2022-10-08T19:36:37.292Z,8.3
2022-10-08T19:51:08.491Z,8.1
2022-10-08T20:05:39.345Z,8.2
2022-10-08T20:20:34.083Z,8
2022-10-08T20:34:54.446Z,7.8
2022-10-08T20:49:26.532Z,7.5
2022-10-08T21:03:58.643Z,7.6
2022-10-08T21:18:29.825Z,7.7
2022-10-08T21:33:03.111Z,7.6
2022-10-08T21:47:35.919Z,7.3
2022-10-08T22:02:08.838Z,6.9
2022-10-08T22:16:41.720Z,6.9
2022-10-08T22:31:13.699Z,7
2022-10-08T22:45:44.928Z,7
2022-10-08T23:00:16.899Z,6.6
2022-10-08T23:14:49.159Z,6.5
2022-10-08T23:29:21.344Z,6.5
2022-10-08T23:43:53.583Z,6.2
2022-10-08T23:58:24.295Z,6.3
